sensor_id;sensor_type;location;lat;lon;timestamp;P1;durP1;ratioP1;P2;durP2;ratioP2
20232;SDS011;37438;55.674;13.074;2023-02-26T00:00:22;1.33;;;0.20;;
20232;SDS011;37438;55.674;13.074;2023-02-26T00:03:26;0.57;;;0.30;;
20232;SDS011;37438;55.674;13.074;2023-02-26T00:06:33;1.13;;;0.20;;
20232;SDS011;37438;55.674;13.074;2023-02-26T00:09:38;1.60;;;0.10;;
20232;SDS011;37438;55.674;13.074;2023-02-26T00:12:43;2.00;;;0.27;;
20232;SDS011;37438;55.674;13.074;2023-02-26T00:15:49;1.35;;;0.20;;
20232;SDS011;37438;55.674;13.074;2023-02-26T00:19:00;0.28;;;0.10;;
20232;SDS011;37438;55.674;13.074;2023-02-26T00:22:07;0.30;;;0.30;;
20232;SDS011;37438;55.674;13.074;2023-02-26T00:25:12;1.45;;;0.20;;
20232;SDS011;37438;55.674;13.074;2023-02-26T00:28:16;0.00;;;0.00;;
20232;SDS011;37438;55.674;13.074;2023-02-26T00:31:21;6.28;;;0.52;;
20232;SDS011;37438;55.674;13.074;2023-02-26T00:34:29;0.10;;;0.10;;
20232;SDS011;37438;55.674;13.074;2023-02-26T00:40:45;0.73;;;0.15;;
20232;SDS011;37438;55.674;13.074;2023-02-26T00:43:50;0.30;;;0.17;;
20232;SDS011;37438;55.674;13.074;2023-02-26T00:50:25;0.00;;;0.00;;
20232;SDS011;37438;55.674;13.074;2023-02-26T00:53:35;0.88;;;0.28;;
20232;SDS011;37438;55.674;13.074;2023-02-26T00:57:05;0.50;;;0.20;;
20232;SDS011;37438;55.674;13.074;2023-02-26T01:00:10;0.40;;;0.20;;
20232;SDS011;37438;55.674;13.074;2023-02-26T01:03:14;1.55;;;0.20;;
20232;SDS011;37438;55.674;13.074;2023-02-26T01:06:19;0.00;;;0.00;;
20232;SDS011;37438;55.674;13.074;2023-02-26T01:09:29;1.77;;;0.70;;
20232;SDS011;37438;55.674;13.074;2023-02-26T01:12:35;0.57;;;0.25;;
20232;SDS011;37438;55.674;13.074;2023-02-26T01:15:42;0.22;;;0.22;;
20232;SDS011;37438;55.674;13.074;2023-02-26T01:22:43;0.10;;;0.05;;
20232;SDS011;37438;55.674;13.074;2023-02-26T01:25:54;0.63;;;0.28;;
20232;SDS011;37438;55.674;13.074;2023-02-26T01:29:01;0.55;;;0.20;;
20232;SDS011;37438;55.674;13.074;2023-02-26T01:32:07;8.48;;;1.00;;
20232;SDS011;37438;55.674;13.074;2023-02-26T01:38:39;2.38;;;0.22;;
20232;SDS011;37438;55.674;13.074;2023-02-26T01:42:05;2.40;;;0.30;;
20232;SDS011;37438;55.674;13.074;2023-02-26T01:45:34;0.82;;;0.20;;
20232;SDS011;37438;55.674;13.074;2023-02-26T01:48:52;0.13;;;0.13;;
20232;SDS011;37438;55.674;13.074;2023-02-26T01:52:01;0.20;;;0.10;;
20232;SDS011;37438;55.674;13.074;2023-02-26T01:55:09;1.70;;;0.10;;
20232;SDS011;37438;55.674;13.074;2023-02-26T01:58:13;0.32;;;0.20;;
20232;SDS011;37438;55.674;13.074;2023-02-26T02:01:20;3.28;;;0.55;;
20232;SDS011;37438;55.674;13.074;2023-02-26T02:04:25;0.63;;;0.37;;
20232;SDS011;37438;55.674;13.074;2023-02-26T02:07:30;3.83;;;0.40;;
20232;SDS011;37438;55.674;13.074;2023-02-26T02:10:34;0.75;;;0.17;;
20232;SDS011;37438;55.674;13.074;2023-02-26T02:24:09;0.80;;;0.20;;
20232;SDS011;37438;55.674;13.074;2023-02-26T02:27:29;2.40;;;0.40;;
20232;SDS011;37438;55.674;13.074;2023-02-26T02:30:59;1.73;;;0.20;;
20232;SDS011;37438;55.674;13.074;2023-02-26T02:34:13;2.50;;;0.20;;
20232;SDS011;37438;55.674;13.074;2023-02-26T02:37:28;0.03;;;0.03;;
20232;SDS011;37438;55.674;13.074;2023-02-26T02:40:39;0.43;;;0.15;;
20232;SDS011;37438;55.674;13.074;2023-02-26T02:43:46;1.60;;;0.47;;
20232;SDS011;37438;55.674;13.074;2023-02-26T02:46:53;1.80;;;0.13;;
20232;SDS011;37438;55.674;13.074;2023-02-26T02:50:06;0.30;;;0.20;;
20232;SDS011;37438;55.674;13.074;2023-02-26T02:53:21;0.90;;;0.20;;
20232;SDS011;37438;55.674;13.074;2023-02-26T02:59:44;0.88;;;0.20;;
20232;SDS011;37438;55.674;13.074;2023-02-26T03:06:16;1.20;;;0.35;;
20232;SDS011;37438;55.674;13.074;2023-02-26T03:09:20;1.50;;;0.20;;
20232;SDS011;37438;55.674;13.074;2023-02-26T03:12:25;2.47;;;0.37;;
20232;SDS011;37438;55.674;13.074;2023-02-26T03:22:40;1.02;;;0.30;;
20232;SDS011;37438;55.674;13.074;2023-02-26T03:26:02;0.10;;;0.10;;
20232;SDS011;37438;55.674;13.074;2023-02-26T03:29:42;1.20;;;0.52;;
20232;SDS011;37438;55.674;13.074;2023-02-26T03:36:23;1.95;;;0.20;;
20232;SDS011;37438;55.674;13.074;2023-02-26T03:39:58;4.32;;;0.35;;
20232;SDS011;37438;55.674;13.074;2023-02-26T03:43:09;0.68;;;0.13;;
20232;SDS011;37438;55.674;13.074;2023-02-26T03:46:36;0.55;;;0.22;;
20232;SDS011;37438;55.674;13.074;2023-02-26T03:49:52;0.50;;;0.20;;
20232;SDS011;37438;55.674;13.074;2023-02-26T03:53:02;0.10;;;0.10;;
20232;SDS011;37438;55.674;13.074;2023-02-26T03:59:49;3.17;;;0.13;;
20232;SDS011;37438;55.674;13.074;2023-02-26T04:03:14;3.42;;;0.20;;
20232;SDS011;37438;55.674;13.074;2023-02-26T04:06:25;1.35;;;0.20;;
20232;SDS011;37438;55.674;13.074;2023-02-26T04:09:32;1.98;;;0.10;;
20232;SDS011;37438;55.674;13.074;2023-02-26T04:12:36;1.17;;;0.20;;
20232;SDS011;37438;55.674;13.074;2023-02-26T04:15:43;0.10;;;0.10;;
20232;SDS011;37438;55.674;13.074;2023-02-26T04:18:47;0.30;;;0.05;;
20232;SDS011;37438;55.674;13.074;2023-02-26T04:21:52;3.43;;;0.47;;
20232;SDS011;37438;55.674;13.074;2023-02-26T04:24:57;2.20;;;0.43;;
20232;SDS011;37438;55.674;13.074;2023-02-26T04:28:01;0.52;;;0.10;;
20232;SDS011;37438;55.674;13.074;2023-02-26T04:31:05;0.28;;;0.20;;
20232;SDS011;37438;55.674;13.074;2023-02-26T04:34:12;4.45;;;0.30;;
20232;SDS011;37438;55.674;13.074;2023-02-26T04:37:17;5.75;;;0.45;;
20232;SDS011;37438;55.674;13.074;2023-02-26T04:40:21;0.30;;;0.20;;
20232;SDS011;37438;55.674;13.074;2023-02-26T04:43:29;2.47;;;0.30;;
20232;SDS011;37438;55.674;13.074;2023-02-26T04:46:49;2.83;;;0.40;;
20232;SDS011;37438;55.674;13.074;2023-02-26T04:49:53;3.67;;;0.35;;
20232;SDS011;37438;55.674;13.074;2023-02-26T04:52:57;2.20;;;0.30;;
20232;SDS011;37438;55.674;13.074;2023-02-26T04:56:02;0.22;;;0.22;;
20232;SDS011;37438;55.674;13.074;2023-02-26T04:59:07;0.97;;;0.17;;
20232;SDS011;37438;55.674;13.074;2023-02-26T05:02:11;5.57;;;0.30;;
20232;SDS011;37438;55.674;13.074;2023-02-26T05:05:20;1.75;;;0.28;;
20232;SDS011;37438;55.674;13.074;2023-02-26T05:08:25;0.43;;;0.22;;
20232;SDS011;37438;55.674;13.074;2023-02-26T05:14:35;5.28;;;0.70;;
20232;SDS011;37438;55.674;13.074;2023-02-26T05:17:39;0.35;;;0.30;;
20232;SDS011;37438;55.674;13.074;2023-02-26T05:20:44;1.40;;;0.20;;
20232;SDS011;37438;55.674;13.074;2023-02-26T05:23:49;3.28;;;0.30;;
20232;SDS011;37438;55.674;13.074;2023-02-26T05:26:53;3.30;;;0.57;;
20232;SDS011;37438;55.674;13.074;2023-02-26T05:29:58;3.53;;;0.25;;
20232;SDS011;37438;55.674;13.074;2023-02-26T05:33:02;1.48;;;0.40;;
20232;SDS011;37438;55.674;13.074;2023-02-26T05:36:07;1.38;;;0.20;;
20232;SDS011;37438;55.674;13.074;2023-02-26T05:39:12;5.75;;;1.00;;
20232;SDS011;37438;55.674;13.074;2023-02-26T05:42:16;1.33;;;0.40;;
20232;SDS011;37438;55.674;13.074;2023-02-26T05:45:21;1.13;;;0.32;;
20232;SDS011;37438;55.674;13.074;2023-02-26T05:48:25;2.30;;;0.50;;
20232;SDS011;37438;55.674;13.074;2023-02-26T05:51:30;3.58;;;0.30;;
20232;SDS011;37438;55.674;13.074;2023-02-26T05:54:34;0.85;;;0.30;;
20232;SDS011;37438;55.674;13.074;2023-02-26T05:57:39;0.93;;;0.30;;
20232;SDS011;37438;55.674;13.074;2023-02-26T06:00:43;0.30;;;0.20;;
20232;SDS011;37438;55.674;13.074;2023-02-26T06:03:48;3.05;;;0.13;;
20232;SDS011;37438;55.674;13.074;2023-02-26T06:06:52;7.33;;;0.27;;
20232;SDS011;37438;55.674;13.074;2023-02-26T06:09:57;3.97;;;0.20;;
20232;SDS011;37438;55.674;13.074;2023-02-26T06:13:01;0.30;;;0.10;;
20232;SDS011;37438;55.674;13.074;2023-02-26T06:16:05;0.98;;;0.13;;
20232;SDS011;37438;55.674;13.074;2023-02-26T06:19:10;2.53;;;0.47;;
20232;SDS011;37438;55.674;13.074;2023-02-26T06:22:14;4.37;;;0.50;;
20232;SDS011;37438;55.674;13.074;2023-02-26T06:25:19;2.43;;;0.30;;
20232;SDS011;37438;55.674;13.074;2023-02-26T06:28:23;2.07;;;0.40;;
20232;SDS011;37438;55.674;13.074;2023-02-26T06:31:28;2.92;;;0.45;;
20232;SDS011;37438;55.674;13.074;2023-02-26T06:34:33;4.22;;;0.30;;
20232;SDS011;37438;55.674;13.074;2023-02-26T06:37:37;3.38;;;0.80;;
20232;SDS011;37438;55.674;13.074;2023-02-26T06:40:42;0.70;;;0.65;;
20232;SDS011;37438;55.674;13.074;2023-02-26T06:43:47;1.95;;;0.73;;
20232;SDS011;37438;55.674;13.074;2023-02-26T06:46:52;1.40;;;0.57;;
20232;SDS011;37438;55.674;13.074;2023-02-26T06:49:56;6.37;;;1.47;;
20232;SDS011;37438;55.674;13.074;2023-02-26T06:53:00;1.77;;;0.70;;
20232;SDS011;37438;55.674;13.074;2023-02-26T06:56:05;3.20;;;1.13;;
20232;SDS011;37438;55.674;13.074;2023-02-26T06:59:09;1.00;;;0.47;;
20232;SDS011;37438;55.674;13.074;2023-02-26T07:02:15;8.30;;;1.88;;
20232;SDS011;37438;55.674;13.074;2023-02-26T07:05:21;2.47;;;0.70;;
20232;SDS011;37438;55.674;13.074;2023-02-26T07:08:25;0.73;;;0.20;;
20232;SDS011;37438;55.674;13.074;2023-02-26T07:11:30;3.07;;;0.70;;
20232;SDS011;37438;55.674;13.074;2023-02-26T07:14:34;1.20;;;0.65;;
20232;SDS011;37438;55.674;13.074;2023-02-26T07:17:39;1.00;;;0.50;;
20232;SDS011;37438;55.674;13.074;2023-02-26T07:20:43;0.87;;;0.30;;
20232;SDS011;37438;55.674;13.074;2023-02-26T07:23:48;3.47;;;0.80;;
20232;SDS011;37438;55.674;13.074;2023-02-26T07:26:52;3.93;;;0.23;;
20232;SDS011;37438;55.674;13.074;2023-02-26T07:29:56;2.83;;;0.40;;
20232;SDS011;37438;55.674;13.074;2023-02-26T07:33:01;4.70;;;0.60;;
20232;SDS011;37438;55.674;13.074;2023-02-26T07:36:05;2.23;;;0.43;;
20232;SDS011;37438;55.674;13.074;2023-02-26T07:39:10;1.00;;;0.40;;
20232;SDS011;37438;55.674;13.074;2023-02-26T07:42:15;0.80;;;0.43;;
20232;SDS011;37438;55.674;13.074;2023-02-26T07:45:19;3.57;;;0.30;;
20232;SDS011;37438;55.674;13.074;2023-02-26T07:48:25;0.32;;;0.32;;
20232;SDS011;37438;55.674;13.074;2023-02-26T07:51:29;2.58;;;0.50;;
20232;SDS011;37438;55.674;13.074;2023-02-26T07:54:36;2.60;;;0.38;;
20232;SDS011;37438;55.674;13.074;2023-02-26T07:57:40;0.43;;;0.35;;
20232;SDS011;37438;55.674;13.074;2023-02-26T08:00:45;1.95;;;0.50;;
20232;SDS011;37438;55.674;13.074;2023-02-26T08:03:49;3.20;;;0.45;;
20232;SDS011;37438;55.674;13.074;2023-02-26T08:06:53;2.60;;;0.55;;
20232;SDS011;37438;55.674;13.074;2023-02-26T08:10:00;8.82;;;1.08;;
20232;SDS011;37438;55.674;13.074;2023-02-26T08:13:04;1.30;;;0.40;;
20232;SDS011;37438;55.674;13.074;2023-02-26T08:16:09;1.60;;;1.20;;
20232;SDS011;37438;55.674;13.074;2023-02-26T08:19:13;3.65;;;0.52;;
20232;SDS011;37438;55.674;13.074;2023-02-26T08:22:18;2.17;;;0.30;;
20232;SDS011;37438;55.674;13.074;2023-02-26T08:25:23;1.02;;;0.32;;
20232;SDS011;37438;55.674;13.074;2023-02-26T08:28:28;1.23;;;0.43;;
20232;SDS011;37438;55.674;13.074;2023-02-26T08:31:33;2.47;;;0.20;;
20232;SDS011;37438;55.674;13.074;2023-02-26T08:34:38;0.25;;;0.22;;
20232;SDS011;37438;55.674;13.074;2023-02-26T08:37:42;5.88;;;0.63;;
20232;SDS011;37438;55.674;13.074;2023-02-26T08:40:50;1.13;;;0.52;;
20232;SDS011;37438;55.674;13.074;2023-02-26T08:43:55;1.38;;;0.25;;
20232;SDS011;37438;55.674;13.074;2023-02-26T08:47:00;7.43;;;0.40;;
20232;SDS011;37438;55.674;13.074;2023-02-26T08:50:04;1.13;;;0.30;;
20232;SDS011;37438;55.674;13.074;2023-02-26T08:56:14;1.77;;;0.20;;
20232;SDS011;37438;55.674;13.074;2023-02-26T08:59:19;0.52;;;0.40;;
20232;SDS011;37438;55.674;13.074;2023-02-26T09:02:23;1.77;;;0.40;;
20232;SDS011;37438;55.674;13.074;2023-02-26T09:05:28;0.85;;;0.30;;
20232;SDS011;37438;55.674;13.074;2023-02-26T09:08:32;1.85;;;0.40;;
20232;SDS011;37438;55.674;13.074;2023-02-26T09:11:36;2.38;;;0.45;;
20232;SDS011;37438;55.674;13.074;2023-02-26T09:14:41;0.75;;;0.15;;
20232;SDS011;37438;55.674;13.074;2023-02-26T09:17:45;1.27;;;0.13;;
20232;SDS011;37438;55.674;13.074;2023-02-26T09:20:50;2.10;;;0.22;;
20232;SDS011;37438;55.674;13.074;2023-02-26T09:23:55;1.25;;;0.30;;
20232;SDS011;37438;55.674;13.074;2023-02-26T09:26:59;1.27;;;0.22;;
20232;SDS011;37438;55.674;13.074;2023-02-26T09:30:06;1.20;;;0.22;;
20232;SDS011;37438;55.674;13.074;2023-02-26T09:33:11;0.98;;;0.10;;
20232;SDS011;37438;55.674;13.074;2023-02-26T09:36:15;0.22;;;0.20;;
20232;SDS011;37438;55.674;13.074;2023-02-26T09:39:20;1.05;;;0.22;;
20232;SDS011;37438;55.674;13.074;2023-02-26T09:45:40;2.17;;;0.40;;
20232;SDS011;37438;55.674;13.074;2023-02-26T09:48:48;1.15;;;0.40;;
20232;SDS011;37438;55.674;13.074;2023-02-26T09:52:10;2.00;;;0.45;;
20232;SDS011;37438;55.674;13.074;2023-02-26T09:55:31;1.08;;;0.30;;
20232;SDS011;37438;55.674;13.074;2023-02-26T09:58:43;0.80;;;0.20;;
20232;SDS011;37438;55.674;13.074;2023-02-26T10:08:42;3.50;;;0.40;;
20232;SDS011;37438;55.674;13.074;2023-02-26T10:12:13;1.15;;;0.20;;
20232;SDS011;37438;55.674;13.074;2023-02-26T10:15:26;1.65;;;0.20;;
20232;SDS011;37438;55.674;13.074;2023-02-26T10:18:36;1.17;;;0.30;;
20232;SDS011;37438;55.674;13.074;2023-02-26T10:22:19;0.52;;;0.20;;
20232;SDS011;37438;55.674;13.074;2023-02-26T10:25:29;0.55;;;0.20;;
20232;SDS011;37438;55.674;13.074;2023-02-26T10:28:47;0.55;;;0.20;;
20232;SDS011;37438;55.674;13.074;2023-02-26T10:35:26;2.28;;;0.65;;
20232;SDS011;37438;55.674;13.074;2023-02-26T10:38:34;0.32;;;0.20;;
20232;SDS011;37438;55.674;13.074;2023-02-26T10:41:39;1.23;;;0.45;;
20232;SDS011;37438;55.674;13.074;2023-02-26T10:48:00;2.47;;;0.60;;
20232;SDS011;37438;55.674;13.074;2023-02-26T10:51:23;0.52;;;0.10;;
20232;SDS011;37438;55.674;13.074;2023-02-26T10:54:31;2.20;;;0.32;;
20232;SDS011;37438;55.674;13.074;2023-02-26T10:57:39;0.88;;;0.20;;
20232;SDS011;37438;55.674;13.074;2023-02-26T11:00:51;1.23;;;0.32;;
20232;SDS011;37438;55.674;13.074;2023-02-26T11:03:58;0.90;;;0.20;;
20232;SDS011;37438;55.674;13.074;2023-02-26T11:07:12;2.03;;;0.40;;
20232;SDS011;37438;55.674;13.074;2023-02-26T11:10:19;3.20;;;0.17;;
20232;SDS011;37438;55.674;13.074;2023-02-26T11:13:27;1.27;;;0.60;;
20232;SDS011;37438;55.674;13.074;2023-02-26T11:16:34;1.45;;;0.43;;
20232;SDS011;37438;55.674;13.074;2023-02-26T11:19:49;1.85;;;0.63;;
20232;SDS011;37438;55.674;13.074;2023-02-26T11:23:00;4.63;;;0.70;;
20232;SDS011;37438;55.674;13.074;2023-02-26T11:26:07;2.50;;;0.85;;
20232;SDS011;37438;55.674;13.074;2023-02-26T11:29:19;1.65;;;0.20;;
20232;SDS011;37438;55.674;13.074;2023-02-26T11:32:30;2.70;;;0.30;;
20232;SDS011;37438;55.674;13.074;2023-02-26T11:35:40;0.47;;;0.20;;
20232;SDS011;37438;55.674;13.074;2023-02-26T11:38:45;2.15;;;0.45;;
20232;SDS011;37438;55.674;13.074;2023-02-26T11:42:00;2.40;;;0.60;;
20232;SDS011;37438;55.674;13.074;2023-02-26T11:45:06;1.77;;;0.20;;
20232;SDS011;37438;55.674;13.074;2023-02-26T11:48:17;1.13;;;0.10;;
20232;SDS011;37438;55.674;13.074;2023-02-26T11:51:26;0.15;;;0.15;;
20232;SDS011;37438;55.674;13.074;2023-02-26T11:54:33;0.98;;;0.47;;
20232;SDS011;37438;55.674;13.074;2023-02-26T11:57:41;0.70;;;0.25;;
20232;SDS011;37438;55.674;13.074;2023-02-26T12:00:46;0.95;;;0.10;;
20232;SDS011;37438;55.674;13.074;2023-02-26T12:03:52;0.20;;;0.20;;
20232;SDS011;37438;55.674;13.074;2023-02-26T12:07:01;1.70;;;0.30;;
20232;SDS011;37438;55.674;13.074;2023-02-26T12:10:14;1.35;;;0.30;;
20232;SDS011;37438;55.674;13.074;2023-02-26T12:13:34;0.52;;;0.45;;
20232;SDS011;37438;55.674;13.074;2023-02-26T12:20:22;1.45;;;0.20;;
20232;SDS011;37438;55.674;13.074;2023-02-26T12:30:42;2.13;;;0.43;;
20232;SDS011;37438;55.674;13.074;2023-02-26T12:37:19;0.57;;;0.20;;
20232;SDS011;37438;55.674;13.074;2023-02-26T12:44:43;1.20;;;0.77;;
20232;SDS011;37438;55.674;13.074;2023-02-26T12:54:41;2.60;;;0.52;;
20232;SDS011;37438;55.674;13.074;2023-02-26T13:08:41;1.88;;;0.35;;
20232;SDS011;37438;55.674;13.074;2023-02-26T13:19:05;1.85;;;0.60;;
20232;SDS011;37438;55.674;13.074;2023-02-26T13:22:19;1.52;;;0.32;;
20232;SDS011;37438;55.674;13.074;2023-02-26T13:28:49;0.20;;;0.20;;
20232;SDS011;37438;55.674;13.074;2023-02-26T13:32:09;1.58;;;0.40;;
20232;SDS011;37438;55.674;13.074;2023-02-26T13:35:26;0.80;;;0.30;;
20232;SDS011;37438;55.674;13.074;2023-02-26T13:38:55;0.73;;;0.30;;
20232;SDS011;37438;55.674;13.074;2023-02-26T13:42:24;1.92;;;0.57;;
20232;SDS011;37438;55.674;13.074;2023-02-26T13:45:37;0.98;;;0.30;;
20232;SDS011;37438;55.674;13.074;2023-02-26T13:52:32;1.23;;;0.32;;
20232;SDS011;37438;55.674;13.074;2023-02-26T13:55:47;5.82;;;0.60;;
20232;SDS011;37438;55.674;13.074;2023-02-26T13:58:54;1.08;;;0.77;;
20232;SDS011;37438;55.674;13.074;2023-02-26T14:09:01;1.42;;;0.50;;
20232;SDS011;37438;55.674;13.074;2023-02-26T14:15:27;1.48;;;0.50;;
20232;SDS011;37438;55.674;13.074;2023-02-26T14:21:53;1.38;;;0.30;;
20232;SDS011;37438;55.674;13.074;2023-02-26T14:25:16;2.22;;;0.57;;
20232;SDS011;37438;55.674;13.074;2023-02-26T14:28:39;1.38;;;0.55;;
20232;SDS011;37438;55.674;13.074;2023-02-26T14:31:50;2.72;;;0.60;;
20232;SDS011;37438;55.674;13.074;2023-02-26T14:35:03;2.38;;;0.55;;
20232;SDS011;37438;55.674;13.074;2023-02-26T14:38:24;2.92;;;0.80;;
20232;SDS011;37438;55.674;13.074;2023-02-26T14:41:40;3.55;;;0.77;;
20232;SDS011;37438;55.674;13.074;2023-02-26T14:44:46;2.05;;;0.30;;
20232;SDS011;37438;55.674;13.074;2023-02-26T14:47:55;3.33;;;0.47;;
20232;SDS011;37438;55.674;13.074;2023-02-26T15:18:01;1.23;;;0.47;;
20232;SDS011;37438;55.674;13.074;2023-02-26T15:24:44;1.60;;;0.50;;
20232;SDS011;37438;55.674;13.074;2023-02-26T15:27:49;4.50;;;0.57;;
20232;SDS011;37438;55.674;13.074;2023-02-26T15:34:00;0.90;;;0.40;;
20232;SDS011;37438;55.674;13.074;2023-02-26T15:37:05;2.85;;;0.52;;
20232;SDS011;37438;55.674;13.074;2023-02-26T15:40:12;0.90;;;0.50;;
20232;SDS011;37438;55.674;13.074;2023-02-26T15:43:20;4.90;;;0.50;;
20232;SDS011;37438;55.674;13.074;2023-02-26T15:46:32;0.98;;;0.30;;
20232;SDS011;37438;55.674;13.074;2023-02-26T15:49:41;0.38;;;0.20;;
20232;SDS011;37438;55.674;13.074;2023-02-26T15:52:49;2.75;;;0.50;;
20232;SDS011;37438;55.674;13.074;2023-02-26T15:55:59;0.98;;;0.47;;
20232;SDS011;37438;55.674;13.074;2023-02-26T15:59:17;0.85;;;0.20;;
20232;SDS011;37438;55.674;13.074;2023-02-26T16:02:26;0.65;;;0.35;;
20232;SDS011;37438;55.674;13.074;2023-02-26T16:05:34;3.00;;;0.55;;
20232;SDS011;37438;55.674;13.074;2023-02-26T16:11:43;1.38;;;0.32;;
20232;SDS011;37438;55.674;13.074;2023-02-26T16:14:54;0.40;;;0.28;;
20232;SDS011;37438;55.674;13.074;2023-02-26T16:18:03;1.35;;;0.17;;
20232;SDS011;37438;55.674;13.074;2023-02-26T16:21:37;2.17;;;0.30;;
20232;SDS011;37438;55.674;13.074;2023-02-26T16:24:42;1.50;;;0.32;;
20232;SDS011;37438;55.674;13.074;2023-02-26T16:27:57;1.17;;;0.40;;
20232;SDS011;37438;55.674;13.074;2023-02-26T16:31:12;2.15;;;0.20;;
20232;SDS011;37438;55.674;13.074;2023-02-26T16:34:23;6.38;;;0.70;;
20232;SDS011;37438;55.674;13.074;2023-02-26T16:37:33;3.28;;;0.95;;
20232;SDS011;37438;55.674;13.074;2023-02-26T16:40:41;1.13;;;0.30;;
20232;SDS011;37438;55.674;13.074;2023-02-26T16:43:49;0.75;;;0.22;;
20232;SDS011;37438;55.674;13.074;2023-02-26T16:47:00;1.67;;;0.30;;
20232;SDS011;37438;55.674;13.074;2023-02-26T16:50:08;2.10;;;0.38;;
20232;SDS011;37438;55.674;13.074;2023-02-26T16:53:22;2.55;;;0.55;;
20232;SDS011;37438;55.674;13.074;2023-02-26T16:56:37;7.85;;;1.35;;
20232;SDS011;37438;55.674;13.074;2023-02-26T16:59:46;7.72;;;0.80;;
20232;SDS011;37438;55.674;13.074;2023-02-26T17:06:24;3.22;;;0.70;;
20232;SDS011;37438;55.674;13.074;2023-02-26T17:09:40;4.80;;;0.60;;
20232;SDS011;37438;55.674;13.074;2023-02-26T17:12:51;4.50;;;1.15;;
20232;SDS011;37438;55.674;13.074;2023-02-26T17:16:05;2.50;;;0.80;;
20232;SDS011;37438;55.674;13.074;2023-02-26T17:19:12;5.38;;;1.35;;
20232;SDS011;37438;55.674;13.074;2023-02-26T17:22:17;1.15;;;0.50;;
20232;SDS011;37438;55.674;13.074;2023-02-26T17:25:26;2.50;;;0.75;;
20232;SDS011;37438;55.674;13.074;2023-02-26T17:28:38;0.77;;;0.73;;
20232;SDS011;37438;55.674;13.074;2023-02-26T17:31:45;2.65;;;0.73;;
20232;SDS011;37438;55.674;13.074;2023-02-26T17:34:50;8.15;;;2.13;;
20232;SDS011;37438;55.674;13.074;2023-02-26T17:37:55;5.05;;;0.90;;
20232;SDS011;37438;55.674;13.074;2023-02-26T17:41:00;6.85;;;1.40;;
20232;SDS011;37438;55.674;13.074;2023-02-26T17:44:05;2.08;;;0.82;;
20232;SDS011;37438;55.674;13.074;2023-02-26T17:47:19;4.50;;;1.15;;
20232;SDS011;37438;55.674;13.074;2023-02-26T17:53:53;4.47;;;1.02;;
20232;SDS011;37438;55.674;13.074;2023-02-26T17:56:57;1.02;;;0.73;;
20232;SDS011;37438;55.674;13.074;2023-02-26T18:00:02;5.95;;;1.17;;
20232;SDS011;37438;55.674;13.074;2023-02-26T18:03:18;5.63;;;0.95;;
20232;SDS011;37438;55.674;13.074;2023-02-26T18:06:23;4.68;;;1.35;;
20232;SDS011;37438;55.674;13.074;2023-02-26T18:09:28;15.75;;;1.30;;
20232;SDS011;37438;55.674;13.074;2023-02-26T18:12:32;5.97;;;1.52;;
20232;SDS011;37438;55.674;13.074;2023-02-26T18:15:37;7.75;;;1.60;;
20232;SDS011;37438;55.674;13.074;2023-02-26T18:18:41;6.18;;;2.83;;
20232;SDS011;37438;55.674;13.074;2023-02-26T18:21:46;4.82;;;1.50;;
20232;SDS011;37438;55.674;13.074;2023-02-26T18:24:51;5.63;;;1.02;;
20232;SDS011;37438;55.674;13.074;2023-02-26T18:27:56;6.50;;;0.93;;
20232;SDS011;37438;55.674;13.074;2023-02-26T18:31:04;6.72;;;1.85;;
20232;SDS011;37438;55.674;13.074;2023-02-26T18:34:12;6.57;;;1.10;;
20232;SDS011;37438;55.674;13.074;2023-02-26T18:37:17;4.80;;;1.13;;
20232;SDS011;37438;55.674;13.074;2023-02-26T18:40:27;4.38;;;0.82;;
20232;SDS011;37438;55.674;13.074;2023-02-26T18:43:31;4.68;;;1.00;;
20232;SDS011;37438;55.674;13.074;2023-02-26T18:46:36;4.90;;;1.60;;
20232;SDS011;37438;55.674;13.074;2023-02-26T18:49:43;7.80;;;1.35;;
20232;SDS011;37438;55.674;13.074;2023-02-26T18:52:48;13.65;;;1.40;;
20232;SDS011;37438;55.674;13.074;2023-02-26T18:55:53;6.75;;;1.75;;
20232;SDS011;37438;55.674;13.074;2023-02-26T18:58:58;7.95;;;1.30;;
20232;SDS011;37438;55.674;13.074;2023-02-26T19:02:03;7.82;;;1.95;;
20232;SDS011;37438;55.674;13.074;2023-02-26T19:05:10;8.90;;;2.97;;
20232;SDS011;37438;55.674;13.074;2023-02-26T19:08:16;7.30;;;1.85;;
20232;SDS011;37438;55.674;13.074;2023-02-26T19:11:20;5.47;;;1.73;;
20232;SDS011;37438;55.674;13.074;2023-02-26T19:14:24;9.43;;;1.60;;
20232;SDS011;37438;55.674;13.074;2023-02-26T19:17:29;2.63;;;0.82;;
20232;SDS011;37438;55.674;13.074;2023-02-26T19:20:34;13.00;;;1.98;;
20232;SDS011;37438;55.674;13.074;2023-02-26T19:23:38;5.70;;;1.07;;
20232;SDS011;37438;55.674;13.074;2023-02-26T19:26:43;11.80;;;1.63;;
20232;SDS011;37438;55.674;13.074;2023-02-26T19:29:47;6.40;;;1.02;;
20232;SDS011;37438;55.674;13.074;2023-02-26T19:32:53;7.47;;;1.50;;
20232;SDS011;37438;55.674;13.074;2023-02-26T19:35:57;11.60;;;4.00;;
20232;SDS011;37438;55.674;13.074;2023-02-26T19:39:03;9.47;;;2.00;;
20232;SDS011;37438;55.674;13.074;2023-02-26T19:42:08;6.75;;;1.15;;
20232;SDS011;37438;55.674;13.074;2023-02-26T19:45:14;4.20;;;0.55;;
20232;SDS011;37438;55.674;13.074;2023-02-26T19:48:19;6.60;;;0.90;;
20232;SDS011;37438;55.674;13.074;2023-02-26T19:51:24;5.82;;;1.20;;
20232;SDS011;37438;55.674;13.074;2023-02-26T19:54:29;11.85;;;1.67;;
20232;SDS011;37438;55.674;13.074;2023-02-26T19:57:34;9.57;;;1.38;;
20232;SDS011;37438;55.674;13.074;2023-02-26T20:00:39;6.38;;;1.20;;
20232;SDS011;37438;55.674;13.074;2023-02-26T20:03:43;9.33;;;1.83;;
20232;SDS011;37438;55.674;13.074;2023-02-26T20:06:51;10.38;;;2.28;;
20232;SDS011;37438;55.674;13.074;2023-02-26T20:09:56;3.90;;;1.00;;
20232;SDS011;37438;55.674;13.074;2023-02-26T20:13:00;5.38;;;1.42;;
20232;SDS011;37438;55.674;13.074;2023-02-26T20:16:05;8.97;;;1.00;;
20232;SDS011;37438;55.674;13.074;2023-02-26T20:19:12;4.40;;;1.70;;
20232;SDS011;37438;55.674;13.074;2023-02-26T20:22:16;3.30;;;0.73;;
20232;SDS011;37438;55.674;13.074;2023-02-26T20:25:23;3.00;;;0.82;;
20232;SDS011;37438;55.674;13.074;2023-02-26T20:28:28;4.47;;;1.05;;
20232;SDS011;37438;55.674;13.074;2023-02-26T20:31:32;6.50;;;0.93;;
20232;SDS011;37438;55.674;13.074;2023-02-26T20:34:36;3.78;;;1.05;;
20232;SDS011;37438;55.674;13.074;2023-02-26T20:37:41;9.13;;;2.80;;
20232;SDS011;37438;55.674;13.074;2023-02-26T20:40:46;9.45;;;1.63;;
20232;SDS011;37438;55.674;13.074;2023-02-26T20:43:52;6.47;;;1.95;;
20232;SDS011;37438;55.674;13.074;2023-02-26T20:46:56;6.97;;;3.03;;
20232;SDS011;37438;55.674;13.074;2023-02-26T20:50:01;8.80;;;1.40;;
20232;SDS011;37438;55.674;13.074;2023-02-26T20:53:05;10.73;;;1.70;;
20232;SDS011;37438;55.674;13.074;2023-02-26T20:56:11;8.75;;;1.73;;
20232;SDS011;37438;55.674;13.074;2023-02-26T20:59:16;5.17;;;1.50;;
20232;SDS011;37438;55.674;13.074;2023-02-26T21:02:21;2.70;;;1.25;;
20232;SDS011;37438;55.674;13.074;2023-02-26T21:05:25;8.07;;;1.63;;
20232;SDS011;37438;55.674;13.074;2023-02-26T21:08:29;8.38;;;2.03;;
20232;SDS011;37438;55.674;13.074;2023-02-26T21:11:34;9.57;;;2.05;;
20232;SDS011;37438;55.674;13.074;2023-02-26T21:14:40;4.35;;;1.50;;
20232;SDS011;37438;55.674;13.074;2023-02-26T21:17:44;10.88;;;1.55;;
20232;SDS011;37438;55.674;13.074;2023-02-26T21:20:48;5.63;;;1.80;;
20232;SDS011;37438;55.674;13.074;2023-02-26T21:23:53;3.10;;;0.93;;
20232;SDS011;37438;55.674;13.074;2023-02-26T21:26:57;5.75;;;2.83;;
20232;SDS011;37438;55.674;13.074;2023-02-26T21:30:03;4.50;;;1.57;;